Wind From: 11-12-2017 12:03 Until: 12-12-2017 06:00 warning for: Wind Level: Orange info button

Power and phone distribution networks may be disrupted for relatively long periods., Roofs and chimneys can be damaged. , Tree branches may break. , Vehicles can be deported. , Traffic may be disrupted, particularly on secondary roads in forest areas. Limit your trips. , Limit your speed in highway driving, especially if you drive a vehicle or hitch sensitive to wind. , Do not go for walks in forests or along the coast., In town, be vigilant against possible falling objects., Do not work on roofs and do not touch any electrical line fallen on the ground., Store or secure sensitive objects to wind or likely to be damaged., Always install power generators outside buildings. 


Meteo18 Weather Cam more information Meteo18 Weather Cam


Thunder radar more information blitzortung!


Rain radar more information rain snow radar


Visit our other weather sites:

Template documentation
and downloads

And another site



Weather Underground History page Text

Daily Summary for April 21, 2017 Units:  Both    English   Metric
« Previous Day
Next Day »
Daily Weekly Monthly Yearly Custom
  High: Low: Average:
Temperature: 61.9 °F /  16.6 °C 35.6 °F /  2.0 °C 49.5 °F /  9.7 °C
Dew Point: 32.4 °F /  0.2 °C 25.9 °F /  -3.4 °C 28.9 °F /  -1.7 °C
Humidity: 68 % 28 % 47 %
Wind Speed: 13 mph /  20.9 km/h - 3.4 mph /  5.4 km/h
Wind Gust: 17 mph /  27.4 km/h - -
Wind:- - SE
Pressure: 30.5 in /  1033.1 hPa 30.4 in /  1029.0 hPa -
Precipitation: 0 in /  0.0 mm    
Historical Graphs
 
 
Tabular Data for April 21, 2017
Time Temperature Dew Point Pressure Wind Wind Speed Wind Gust Humidity Rainfall Rate (Hourly)
00:02 44.1 °F /  6.7 °C 28 °F /  -2.2 °C 30.5 in /  1032.7 hPa NNE 10 mph /  16.1 km/h 13 mph /  20.9 km/h 53 % 0 in /  0.0 mm
00:12 43.9 °F /  6.6 °C 28.4 °F /  -2.0 °C 30.5 in /  1032.7 hPa North 5 mph /  8.0 km/h 13 mph /  20.9 km/h 54 % 0 in /  0.0 mm
00:17 43.7 °F /  6.5 °C 28.2 °F /  -2.1 °C 30.5 in /  1032.7 hPa NE 1 mph /  1.6 km/h 13 mph /  20.9 km/h 54 % 0 in /  0.0 mm
00:22 43.2 °F /  6.2 °C 28 °F /  -2.2 °C 30.5 in /  1033.1 hPa NNE 2 mph /  3.2 km/h 13 mph /  20.9 km/h 55 % 0 in /  0.0 mm
00:27 42.8 °F /  6.0 °C 28.2 °F /  -2.1 °C 30.5 in /  1033.1 hPa NW 2 mph /  3.2 km/h 13 mph /  20.9 km/h 56 % 0 in /  0.0 mm
00:32 42.4 °F /  5.8 °C 28.2 °F /  -2.1 °C 30.5 in /  1033.1 hPa NNW 3 mph /  4.8 km/h 12 mph /  19.3 km/h 57 % 0 in /  0.0 mm
00:37 42.3 °F /  5.7 °C 28 °F /  -2.2 °C 30.5 in /  1033.1 hPa NNE 2 mph /  3.2 km/h 12 mph /  19.3 km/h 57 % 0 in /  0.0 mm
00:42 41.9 °F /  5.5 °C 28.2 °F /  -2.1 °C 30.5 in /  1033.1 hPa North 2 mph /  3.2 km/h 8 mph /  12.9 km/h 58 % 0 in /  0.0 mm
00:52 41.5 °F /  5.3 °C 27.9 °F /  -2.3 °C 30.5 in /  1033.1 hPa NE 4 mph /  6.4 km/h 10 mph /  16.1 km/h 58 % 0 in /  0.0 mm
00:57 41.4 °F /  5.2 °C 28 °F /  -2.2 °C 30.5 in /  1033.1 hPa NNE 2 mph /  3.2 km/h 10 mph /  16.1 km/h 59 % 0 in /  0.0 mm
01:02 41.2 °F /  5.1 °C 27.9 °F /  -2.3 °C 30.5 in /  1033.1 hPa North 4 mph /  6.4 km/h 10 mph /  16.1 km/h 59 % 0 in /  0.0 mm
01:07 41 °F /  5.0 °C 27.9 °F /  -2.3 °C 30.5 in /  1033.1 hPa North 2 mph /  3.2 km/h 7 mph /  11.3 km/h 59 % 0 in /  0.0 mm
01:12 40.6 °F /  4.8 °C 27.9 °F /  -2.3 °C 30.5 in /  1033.1 hPa Calm   7 mph /  11.3 km/h 60 % 0 in /  0.0 mm
01:17 40.5 °F /  4.7 °C 28 °F /  -2.2 °C 30.5 in /  1033.1 hPa North 2 mph /  3.2 km/h 8 mph /  12.9 km/h 61 % 0 in /  0.0 mm
01:22 40.5 °F /  4.7 °C 28 °F /  -2.2 °C 30.5 in /  1033.1 hPa NE 2 mph /  3.2 km/h 8 mph /  12.9 km/h 61 % 0 in /  0.0 mm
01:27 40.3 °F /  4.6 °C 27.9 °F /  -2.3 °C 30.5 in /  1033.1 hPa NW 1 mph /  1.6 km/h 6 mph /  9.7 km/h 61 % 0 in /  0.0 mm
01:32 40.3 °F /  4.6 °C 27.9 °F /  -2.3 °C 30.5 in /  1033.1 hPa NW 1 mph /  1.6 km/h 6 mph /  9.7 km/h 61 % 0 in /  0.0 mm
01:37 40.3 °F /  4.6 °C 27.9 °F /  -2.3 °C 30.5 in /  1033.1 hPa NNW 3 mph /  4.8 km/h 6 mph /  9.7 km/h 61 % 0 in /  0.0 mm
01:42 39.9 °F /  4.4 °C 28 °F /  -2.2 °C 30.5 in /  1033.1 hPa NNW 1 mph /  1.6 km/h 6 mph /  9.7 km/h 62 % 0 in /  0.0 mm
01:47 39.9 °F /  4.4 °C 27.5 °F /  -2.5 °C 30.5 in /  1033.1 hPa North 5 mph /  8.0 km/h 6 mph /  9.7 km/h 61 % 0 in /  0.0 mm
01:52 40.1 °F /  4.5 °C 27.7 °F /  -2.4 °C 30.5 in /  1033.1 hPa North 3 mph /  4.8 km/h 6 mph /  9.7 km/h 61 % 0 in /  0.0 mm
01:57 39.9 °F /  4.4 °C 28 °F /  -2.2 °C 30.5 in /  1033.1 hPa North 2 mph /  3.2 km/h 6 mph /  9.7 km/h 62 % 0 in /  0.0 mm
02:02 39.7 °F /  4.3 °C 27.9 °F /  -2.3 °C 30.5 in /  1033.1 hPa NNW 2 mph /  3.2 km/h 6 mph /  9.7 km/h 62 % 0 in /  0.0 mm
02:07 39.7 °F /  4.3 °C 27.9 °F /  -2.3 °C 30.5 in /  1033.1 hPa North 2 mph /  3.2 km/h 6 mph /  9.7 km/h 62 % 0 in /  0.0 mm
02:12 39.6 °F /  4.2 °C 27.7 °F /  -2.4 °C 30.5 in /  1033.1 hPa NNE 2 mph /  3.2 km/h 4 mph /  6.4 km/h 62 % 0 in /  0.0 mm
02:17 39.6 °F /  4.2 °C 27.7 °F /  -2.4 °C 30.5 in /  1032.7 hPa NNE 4 mph /  6.4 km/h 4 mph /  6.4 km/h 62 % 0 in /  0.0 mm
02:22 39.4 °F /  4.1 °C 27.5 °F /  -2.5 °C 30.5 in /  1032.7 hPa NE 1 mph /  1.6 km/h 4 mph /  6.4 km/h 62 % 0 in /  0.0 mm
02:32 39.4 °F /  4.1 °C 27.9 °F /  -2.3 °C 30.5 in /  1032.7 hPa NNW 3 mph /  4.8 km/h 4 mph /  6.4 km/h 63 % 0 in /  0.0 mm
02:37 39.2 °F /  4.0 °C 27.3 °F /  -2.6 °C 30.5 in /  1032.7 hPa NNE 2 mph /  3.2 km/h 3 mph /  4.8 km/h 62 % 0 in /  0.0 mm
02:42 38.8 °F /  3.8 °C 27.3 °F /  -2.6 °C 30.5 in /  1032.7 hPa Calm   3 mph /  4.8 km/h 63 % 0 in /  0.0 mm
02:47 38.7 °F /  3.7 °C 27.1 °F /  -2.7 °C 30.5 in /  1032.7 hPa NE 5 mph /  8.0 km/h 5 mph /  8.0 km/h 63 % 0 in /  0.0 mm
02:52 38.8 °F /  3.8 °C 27.3 °F /  -2.6 °C 30.5 in /  1032.7 hPa NNE 3 mph /  4.8 km/h 4 mph /  6.4 km/h 63 % 0 in /  0.0 mm
02:57 38.8 °F /  3.8 °C 27.3 °F /  -2.6 °C 30.5 in /  1032.7 hPa NW 2 mph /  3.2 km/h 5 mph /  8.0 km/h 63 % 0 in /  0.0 mm
03:02 38.7 °F /  3.7 °C 27.5 °F /  -2.5 °C 30.5 in /  1032.7 hPa NNW 2 mph /  3.2 km/h 5 mph /  8.0 km/h 64 % 0 in /  0.0 mm
03:12 38.7 °F /  3.7 °C 27.1 °F /  -2.7 °C 30.5 in /  1032.7 hPa North 3 mph /  4.8 km/h 5 mph /  8.0 km/h 63 % 0 in /  0.0 mm
03:17 38.5 °F /  3.6 °C 27.3 °F /  -2.6 °C 30.5 in /  1032.7 hPa NNW 4 mph /  6.4 km/h 7 mph /  11.3 km/h 64 % 0 in /  0.0 mm
03:22 38.1 °F /  3.4 °C 27 °F /  -2.8 °C 30.5 in /  1032.7 hPa North 5 mph /  8.0 km/h 7 mph /  11.3 km/h 64 % 0 in /  0.0 mm
03:32 38.5 °F /  3.6 °C 27.3 °F /  -2.6 °C 30.5 in /  1032.7 hPa NW 3 mph /  4.8 km/h 7 mph /  11.3 km/h 64 % 0 in /  0.0 mm
03:37 38.5 °F /  3.6 °C 27 °F /  -2.8 °C 30.5 in /  1032.7 hPa North 3 mph /  4.8 km/h 6 mph /  9.7 km/h 63 % 0 in /  0.0 mm
03:42 38.5 °F /  3.6 °C 27.3 °F /  -2.6 °C 30.5 in /  1032.7 hPa North 2 mph /  3.2 km/h 6 mph /  9.7 km/h 64 % 0 in /  0.0 mm
03:47 38.1 °F /  3.4 °C 27 °F /  -2.8 °C 30.5 in /  1032.7 hPa NW 1 mph /  1.6 km/h 7 mph /  11.3 km/h 64 % 0 in /  0.0 mm
03:52 37.9 °F /  3.3 °C 26.8 °F /  -2.9 °C 30.5 in /  1032.4 hPa Calm   7 mph /  11.3 km/h 64 % 0 in /  0.0 mm
03:57 37.8 °F /  3.2 °C 26.6 °F /  -3.0 °C 30.5 in /  1032.4 hPa Calm   5 mph /  8.0 km/h 64 % 0 in /  0.0 mm
04:02 37.6 °F /  3.1 °C 27 °F /  -2.8 °C 30.5 in /  1032.4 hPa North 3 mph /  4.8 km/h 5 mph /  8.0 km/h 65 % 0 in /  0.0 mm
04:12 37 °F /  2.8 °C 26.4 °F /  -3.1 °C 30.5 in /  1032.4 hPa Calm   4 mph /  6.4 km/h 65 % 0 in /  0.0 mm
04:17 36.9 °F /  2.7 °C 26.6 °F /  -3.0 °C 30.5 in /  1032.4 hPa NW 1 mph /  1.6 km/h 3 mph /  4.8 km/h 66 % 0 in /  0.0 mm
04:27 37 °F /  2.8 °C 26.8 °F /  -2.9 °C 30.5 in /  1032.4 hPa WNW 2 mph /  3.2 km/h 2 mph /  3.2 km/h 66 % 0 in /  0.0 mm
04:32 36.7 °F /  2.6 °C 26.4 °F /  -3.1 °C 30.5 in /  1032.4 hPa WNW 2 mph /  3.2 km/h 2 mph /  3.2 km/h 66 % 0 in /  0.0 mm
04:42 37.2 °F /  2.9 °C 26.6 °F /  -3.0 °C 30.5 in /  1032.4 hPa NW 1 mph /  1.6 km/h 2 mph /  3.2 km/h 65 % 0 in /  0.0 mm
04:47 37.6 °F /  3.1 °C 26.6 °F /  -3.0 °C 30.5 in /  1032.4 hPa NW 1 mph /  1.6 km/h 2 mph /  3.2 km/h 64 % 0 in /  0.0 mm
04:52 37.2 °F /  2.9 °C 26.6 °F /  -3.0 °C 30.5 in /  1032.4 hPa NW 2 mph /  3.2 km/h 2 mph /  3.2 km/h 65 % 0 in /  0.0 mm
04:57 37.6 °F /  3.1 °C 26.6 °F /  -3.0 °C 30.5 in /  1032.4 hPa WNW 2 mph /  3.2 km/h 2 mph /  3.2 km/h 64 % 0 in /  0.0 mm
05:02 37.8 °F /  3.2 °C 26.2 °F /  -3.2 °C 30.5 in /  1032.4 hPa NW 2 mph /  3.2 km/h 2 mph /  3.2 km/h 63 % 0 in /  0.0 mm
05:12 37.8 °F /  3.2 °C 26.2 °F /  -3.2 °C 30.5 in /  1032.4 hPa North 3 mph /  4.8 km/h 3 mph /  4.8 km/h 63 % 0 in /  0.0 mm
05:17 37.8 °F /  3.2 °C 26.2 °F /  -3.2 °C 30.5 in /  1032.4 hPa NW 1 mph /  1.6 km/h 4 mph /  6.4 km/h 63 % 0 in /  0.0 mm
05:22 37.6 °F /  3.1 °C 26.6 °F /  -3.0 °C 30.5 in /  1032.4 hPa NNW 1 mph /  1.6 km/h 4 mph /  6.4 km/h 64 % 0 in /  0.0 mm
05:32 37.2 °F /  2.9 °C 26.2 °F /  -3.2 °C 30.5 in /  1032.4 hPa North 2 mph /  3.2 km/h 4 mph /  6.4 km/h 64 % 0 in /  0.0 mm
05:42 36.9 °F /  2.7 °C 26.2 °F /  -3.2 °C 30.5 in /  1032.4 hPa Calm   3 mph /  4.8 km/h 65 % 0 in /  0.0 mm
05:47 36.7 °F /  2.6 °C 26.1 °F /  -3.3 °C 30.5 in /  1032.4 hPa North 2 mph /  3.2 km/h 2 mph /  3.2 km/h 65 % 0 in /  0.0 mm
05:52 36.7 °F /  2.6 °C 26.1 °F /  -3.3 °C 30.5 in /  1032.4 hPa NNE 1 mph /  1.6 km/h 2 mph /  3.2 km/h 65 % 0 in /  0.0 mm
06:02 36.3 °F /  2.4 °C 26.1 °F /  -3.3 °C 30.5 in /  1032.4 hPa Calm   2 mph /  3.2 km/h 66 % 0 in /  0.0 mm
06:12 36.5 °F /  2.5 °C 26.2 °F /  -3.2 °C 30.5 in /  1032.4 hPa NNW 2 mph /  3.2 km/h 4 mph /  6.4 km/h 66 % 0 in /  0.0 mm
06:17 36.7 °F /  2.6 °C 26.1 °F /  -3.3 °C 30.5 in /  1032.1 hPa NNW 1 mph /  1.6 km/h 4 mph /  6.4 km/h 65 % 0 in /  0.0 mm
06:22 36.9 °F /  2.7 °C 26.2 °F /  -3.2 °C 30.5 in /  1032.1 hPa NNW 2 mph /  3.2 km/h 4 mph /  6.4 km/h 65 % 0 in /  0.0 mm
06:27 36.9 °F /  2.7 °C 26.2 °F /  -3.2 °C 30.5 in /  1032.1 hPa NNW 1 mph /  1.6 km/h 3 mph /  4.8 km/h 65 % 0 in /  0.0 mm
06:32 36.9 °F /  2.7 °C 26.2 °F /  -3.2 °C 30.5 in /  1032.1 hPa NNW 2 mph /  3.2 km/h 3 mph /  4.8 km/h 65 % 0 in /  0.0 mm
06:37 36.3 °F /  2.4 °C 26.1 °F /  -3.3 °C 30.5 in /  1032.4 hPa Calm   3 mph /  4.8 km/h 66 % 0 in /  0.0 mm
06:42 35.8 °F /  2.1 °C 25.9 °F /  -3.4 °C 30.5 in /  1032.1 hPa Calm   3 mph /  4.8 km/h 67 % 0 in /  0.0 mm
06:47 35.6 °F /  2.0 °C 26.1 °F /  -3.3 °C 30.5 in /  1032.4 hPa North 2 mph /  3.2 km/h 4 mph /  6.4 km/h 68 % 0 in /  0.0 mm
06:52 35.8 °F /  2.1 °C 25.9 °F /  -3.4 °C 30.5 in /  1032.1 hPa NNW 1 mph /  1.6 km/h 4 mph /  6.4 km/h 67 % 0 in /  0.0 mm
06:57 35.8 °F /  2.1 °C 25.9 °F /  -3.4 °C 30.5 in /  1032.1 hPa NNE 1 mph /  1.6 km/h 4 mph /  6.4 km/h 67 % 0 in /  0.0 mm
07:02 36 °F /  2.2 °C 26.1 °F /  -3.3 °C 30.5 in /  1032.4 hPa North 3 mph /  4.8 km/h 4 mph /  6.4 km/h 67 % 0 in /  0.0 mm
07:12 36.3 °F /  2.4 °C 26.1 °F /  -3.3 °C 30.5 in /  1032.4 hPa Calm   3 mph /  4.8 km/h 66 % 0 in /  0.0 mm
07:22 37 °F /  2.8 °C 26.4 °F /  -3.1 °C 30.5 in /  1032.4 hPa NNW 1 mph /  1.6 km/h 3 mph /  4.8 km/h 65 % 0 in /  0.0 mm
07:32 37.2 °F /  2.9 °C 26.6 °F /  -3.0 °C 30.5 in /  1032.4 hPa Calm   3 mph /  4.8 km/h 65 % 0 in /  0.0 mm
07:42 37.8 °F /  3.2 °C 27.1 °F /  -2.7 °C 30.5 in /  1032.4 hPa North 1 mph /  1.6 km/h 3 mph /  4.8 km/h 65 % 0 in /  0.0 mm
07:47 37.8 °F /  3.2 °C 27.1 °F /  -2.7 °C 30.5 in /  1032.4 hPa North 1 mph /  1.6 km/h 3 mph /  4.8 km/h 65 % 0 in /  0.0 mm
07:52 37.9 °F /  3.3 °C 27.1 °F /  -2.7 °C 30.5 in /  1032.4 hPa Calm   3 mph /  4.8 km/h 65 % 0 in /  0.0 mm
07:57 38.5 °F /  3.6 °C 27.7 °F /  -2.4 °C 30.5 in /  1032.4 hPa Calm   3 mph /  4.8 km/h 65 % 0 in /  0.0 mm
08:02 39 °F /  3.9 °C 28.2 °F /  -2.1 °C 30.5 in /  1032.4 hPa North 1 mph /  1.6 km/h 3 mph /  4.8 km/h 65 % 0 in /  0.0 mm
08:12 39.9 °F /  4.4 °C 28.4 °F /  -2.0 °C 30.5 in /  1032.7 hPa NNE 2 mph /  3.2 km/h 3 mph /  4.8 km/h 63 % 0 in /  0.0 mm
08:17 40.3 °F /  4.6 °C 28.8 °F /  -1.8 °C 30.5 in /  1032.7 hPa NNE 3 mph /  4.8 km/h 4 mph /  6.4 km/h 63 % 0 in /  0.0 mm
08:22 40.6 °F /  4.8 °C 28.6 °F /  -1.9 °C 30.5 in /  1032.7 hPa NNE 3 mph /  4.8 km/h 4 mph /  6.4 km/h 62 % 0 in /  0.0 mm
08:32 41.4 °F /  5.2 °C 28.6 °F /  -1.9 °C 30.5 in /  1032.7 hPa NNE 5 mph /  8.0 km/h 5 mph /  8.0 km/h 60 % 0 in /  0.0 mm
08:42 41.7 °F /  5.4 °C 28 °F /  -2.2 °C 30.5 in /  1032.7 hPa NNE 3 mph /  4.8 km/h 6 mph /  9.7 km/h 58 % 0 in /  0.0 mm
08:47 42.3 °F /  5.7 °C 28.6 °F /  -1.9 °C 30.5 in /  1032.7 hPa NNE 4 mph /  6.4 km/h 7 mph /  11.3 km/h 58 % 0 in /  0.0 mm
08:52 42.3 °F /  5.7 °C 28 °F /  -2.2 °C 30.5 in /  1032.7 hPa NE 4 mph /  6.4 km/h 7 mph /  11.3 km/h 57 % 0 in /  0.0 mm
08:57 42.4 °F /  5.8 °C 28.2 °F /  -2.1 °C 30.5 in /  1032.7 hPa NNE 5 mph /  8.0 km/h 8 mph /  12.9 km/h 57 % 0 in /  0.0 mm
09:02 43.2 °F /  6.2 °C 29.8 °F /  -1.2 °C 30.5 in /  1033.1 hPa NNE 3 mph /  4.8 km/h 8 mph /  12.9 km/h 59 % 0 in /  0.0 mm
09:12 43.9 °F /  6.6 °C 29.7 °F /  -1.3 °C 30.5 in /  1032.7 hPa ENE 6 mph /  9.7 km/h 8 mph /  12.9 km/h 57 % 0 in /  0.0 mm
09:17 44.2 °F /  6.8 °C 28.6 °F /  -1.9 °C 30.5 in /  1032.7 hPa NE 8 mph /  12.9 km/h 8 mph /  12.9 km/h 54 % 0 in /  0.0 mm
09:22 44.2 °F /  6.8 °C 28.6 °F /  -1.9 °C 30.5 in /  1032.7 hPa NE 8 mph /  12.9 km/h 8 mph /  12.9 km/h 54 % 0 in /  0.0 mm
09:27 44.4 °F /  6.9 °C 29.7 °F /  -1.3 °C 30.5 in /  1032.7 hPa NNE 7 mph /  11.3 km/h 11 mph /  17.7 km/h 56 % 0 in /  0.0 mm
09:32 45 °F /  7.2 °C 29.8 °F /  -1.2 °C 30.5 in /  1032.7 hPa North 4 mph /  6.4 km/h 11 mph /  17.7 km/h 55 % 0 in /  0.0 mm
09:42 45.5 °F /  7.5 °C 30.2 °F /  -1.0 °C 30.5 in /  1032.7 hPa NNE 3 mph /  4.8 km/h 10 mph /  16.1 km/h 55 % 0 in /  0.0 mm
09:52 46.2 °F /  7.9 °C 30.6 °F /  -0.8 °C 30.5 in /  1032.7 hPa NNE 7 mph /  11.3 km/h 8 mph /  12.9 km/h 54 % 0 in /  0.0 mm
09:57 46.8 °F /  8.2 °C 30.9 °F /  -0.6 °C 30.5 in /  1032.7 hPa NE 6 mph /  9.7 km/h 9 mph /  14.5 km/h 54 % 0 in /  0.0 mm
10:02 47.1 °F /  8.4 °C 30.9 °F /  -0.6 °C 30.5 in /  1033.1 hPa North 6 mph /  9.7 km/h 9 mph /  14.5 km/h 53 % 0 in /  0.0 mm
10:12 47.7 °F /  8.7 °C 30 °F /  -1.1 °C 30.5 in /  1033.1 hPa NE 8 mph /  12.9 km/h 8 mph /  12.9 km/h 50 % 0 in /  0.0 mm
10:17 48 °F /  8.9 °C 29.8 °F /  -1.2 °C 30.5 in /  1033.1 hPa NE 6 mph /  9.7 km/h 10 mph /  16.1 km/h 49 % 0 in /  0.0 mm
10:22 48.4 °F /  9.1 °C 29.1 °F /  -1.6 °C 30.5 in /  1033.1 hPa North 5 mph /  8.0 km/h 10 mph /  16.1 km/h 47 % 0 in /  0.0 mm
10:32 48.9 °F /  9.4 °C 30.6 °F /  -0.8 °C 30.5 in /  1033.1 hPa NNE 4 mph /  6.4 km/h 10 mph /  16.1 km/h 49 % 0 in /  0.0 mm
10:42 49.8 °F /  9.9 °C 30.9 °F /  -0.6 °C 30.5 in /  1033.1 hPa NE 3 mph /  4.8 km/h 11 mph /  17.7 km/h 48 % 0 in /  0.0 mm
10:52 49.8 °F /  9.9 °C 30.4 °F /  -0.9 °C 30.5 in /  1033.1 hPa ENE 7 mph /  11.3 km/h 11 mph /  17.7 km/h 47 % 0 in /  0.0 mm
11:02 50.5 °F /  10.3 °C 30.6 °F /  -0.8 °C 30.5 in /  1033.1 hPa NNE 3 mph /  4.8 km/h 12 mph /  19.3 km/h 46 % 0 in /  0.0 mm
11:12 51.3 °F /  10.7 °C 30.6 °F /  -0.8 °C 30.5 in /  1033.1 hPa NNW 5 mph /  8.0 km/h 12 mph /  19.3 km/h 45 % 0 in /  0.0 mm
11:17 52 °F /  11.1 °C 30.7 °F /  -0.7 °C 30.5 in /  1033.1 hPa NE 6 mph /  9.7 km/h 12 mph /  19.3 km/h 44 % 0 in /  0.0 mm
11:22 52 °F /  11.1 °C 29.7 °F /  -1.3 °C 30.5 in /  1033.1 hPa NNE 13 mph /  20.9 km/h 13 mph /  20.9 km/h 42 % 0 in /  0.0 mm
11:32 52.7 °F /  11.5 °C 29.7 °F /  -1.3 °C 30.5 in /  1033.1 hPa NE 6 mph /  9.7 km/h 15 mph /  24.1 km/h 41 % 0 in /  0.0 mm
11:42 53.1 °F /  11.7 °C 28 °F /  -2.2 °C 30.5 in /  1033.1 hPa NE 6 mph /  9.7 km/h 15 mph /  24.1 km/h 38 % 0 in /  0.0 mm
11:52 53.4 °F /  11.9 °C 28.4 °F /  -2.0 °C 30.5 in /  1032.7 hPa ENE 5 mph /  8.0 km/h 14 mph /  22.5 km/h 38 % 0 in /  0.0 mm
12:02 53.8 °F /  12.1 °C 26.8 °F /  -2.9 °C 30.5 in /  1032.7 hPa NE 2 mph /  3.2 km/h 16 mph /  25.7 km/h 35 % 0 in /  0.0 mm
12:12 54.9 °F /  12.7 °C 28.4 °F /  -2.0 °C 30.5 in /  1032.7 hPa NE 12 mph /  19.3 km/h 14 mph /  22.5 km/h 36 % 0 in /  0.0 mm
12:17 54.7 °F /  12.6 °C 29.5 °F /  -1.4 °C 30.5 in /  1032.7 hPa NNE 5 mph /  8.0 km/h 15 mph /  24.1 km/h 38 % 0 in /  0.0 mm
12:22 55 °F /  12.8 °C 29.8 °F /  -1.2 °C 30.5 in /  1032.7 hPa NE 4 mph /  6.4 km/h 17 mph /  27.4 km/h 38 % 0 in /  0.0 mm
12:27 54.9 °F /  12.7 °C 27 °F /  -2.8 °C 30.5 in /  1032.7 hPa ENE 5 mph /  8.0 km/h 17 mph /  27.4 km/h 34 % 0 in /  0.0 mm
12:32 55.6 °F /  13.1 °C 28.4 °F /  -2.0 °C 30.5 in /  1032.7 hPa NNE 9 mph /  14.5 km/h 17 mph /  27.4 km/h 35 % 0 in /  0.0 mm
12:37 55.8 °F /  13.2 °C 29.1 °F /  -1.6 °C 30.5 in /  1032.7 hPa ENE 4 mph /  6.4 km/h 17 mph /  27.4 km/h 36 % 0 in /  0.0 mm
12:42 55.8 °F /  13.2 °C 27.9 °F /  -2.3 °C 30.5 in /  1032.4 hPa NE 6 mph /  9.7 km/h 17 mph /  27.4 km/h 34 % 0 in /  0.0 mm
12:47 55.9 °F /  13.3 °C 28.8 °F /  -1.8 °C 30.5 in /  1032.4 hPa ESE 5 mph /  8.0 km/h 15 mph /  24.1 km/h 35 % 0 in /  0.0 mm
12:52 56.5 °F /  13.6 °C 29.1 °F /  -1.6 °C 30.5 in /  1032.4 hPa ENE 7 mph /  11.3 km/h 15 mph /  24.1 km/h 35 % 0 in /  0.0 mm
12:57 56.3 °F /  13.5 °C 29.7 °F /  -1.3 °C 30.5 in /  1032.4 hPa NNE 5 mph /  8.0 km/h 15 mph /  24.1 km/h 36 % 0 in /  0.0 mm
13:02 56.7 °F /  13.7 °C 30 °F /  -1.1 °C 30.5 in /  1032.4 hPa ENE 8 mph /  12.9 km/h 15 mph /  24.1 km/h 36 % 0 in /  0.0 mm
13:07 56.8 °F /  13.8 °C 29.5 °F /  -1.4 °C 30.5 in /  1032.4 hPa NNE 12 mph /  19.3 km/h 12 mph /  19.3 km/h 35 % 0 in /  0.0 mm
13:12 56.7 °F /  13.7 °C 30 °F /  -1.1 °C 30.5 in /  1032.4 hPa ENE 4 mph /  6.4 km/h 11 mph /  17.7 km/h 36 % 0 in /  0.0 mm
13:17 56.5 °F /  13.6 °C 27 °F /  -2.8 °C 30.5 in /  1032.4 hPa ENE 6 mph /  9.7 km/h 15 mph /  24.1 km/h 32 % 0 in /  0.0 mm
13:22 57 °F /  13.9 °C 30.4 °F /  -0.9 °C 30.5 in /  1032.4 hPa ENE 6 mph /  9.7 km/h 15 mph /  24.1 km/h 36 % 0 in /  0.0 mm
13:27 57 °F /  13.9 °C 28.9 °F /  -1.7 °C 30.5 in /  1032.1 hPa North 12 mph /  19.3 km/h 15 mph /  24.1 km/h 34 % 0 in /  0.0 mm
13:32 56.8 °F /  13.8 °C 27.3 °F /  -2.6 °C 30.5 in /  1032.1 hPa NE 7 mph /  11.3 km/h 15 mph /  24.1 km/h 32 % 0 in /  0.0 mm
13:37 57 °F /  13.9 °C 29.7 °F /  -1.3 °C 30.5 in /  1032.1 hPa NE 7 mph /  11.3 km/h 15 mph /  24.1 km/h 35 % 0 in /  0.0 mm
13:42 57.2 °F /  14.0 °C 29.1 °F /  -1.6 °C 30.5 in /  1032.1 hPa NNE 8 mph /  12.9 km/h 15 mph /  24.1 km/h 34 % 0 in /  0.0 mm
13:52 57.6 °F /  14.2 °C 27.9 °F /  -2.3 °C 30.5 in /  1032.1 hPa ENE 6 mph /  9.7 km/h 14 mph /  22.5 km/h 32 % 0 in /  0.0 mm
13:57 57 °F /  13.9 °C 27.5 °F /  -2.5 °C 30.5 in /  1032.1 hPa NE 6 mph /  9.7 km/h 14 mph /  22.5 km/h 32 % 0 in /  0.0 mm
14:02 57.4 °F /  14.1 °C 27 °F /  -2.8 °C 30.5 in /  1032.1 hPa North 6 mph /  9.7 km/h 14 mph /  22.5 km/h 31 % 0 in /  0.0 mm
14:12 57.7 °F /  14.3 °C 27.3 °F /  -2.6 °C 30.5 in /  1031.7 hPa ENE 4 mph /  6.4 km/h 14 mph /  22.5 km/h 31 % 0 in /  0.0 mm
14:17 57.7 °F /  14.3 °C 27.3 °F /  -2.6 °C 30.5 in /  1031.7 hPa NE 6 mph /  9.7 km/h 14 mph /  22.5 km/h 31 % 0 in /  0.0 mm
14:22 58.1 °F /  14.5 °C 28.4 °F /  -2.0 °C 30.5 in /  1031.7 hPa NW 1 mph /  1.6 km/h 14 mph /  22.5 km/h 32 % 0 in /  0.0 mm
14:27 58.5 °F /  14.7 °C 30.2 °F /  -1.0 °C 30.5 in /  1031.7 hPa ENE 5 mph /  8.0 km/h 17 mph /  27.4 km/h 34 % 0 in /  0.0 mm
14:32 58.6 °F /  14.8 °C 28 °F /  -2.2 °C 30.5 in /  1031.7 hPa NE 9 mph /  14.5 km/h 17 mph /  27.4 km/h 31 % 0 in /  0.0 mm
14:42 59.2 °F /  15.1 °C 29.3 °F /  -1.5 °C 30.5 in /  1031.7 hPa ENE 8 mph /  12.9 km/h 13 mph /  20.9 km/h 32 % 0 in /  0.0 mm
14:47 59.4 °F /  15.2 °C 28.8 °F /  -1.8 °C 30.5 in /  1031.4 hPa NNE 6 mph /  9.7 km/h 12 mph /  19.3 km/h 31 % 0 in /  0.0 mm
14:52 58.8 °F /  14.9 °C 26.6 °F /  -3.0 °C 30.5 in /  1031.4 hPa North 5 mph /  8.0 km/h 12 mph /  19.3 km/h 29 % 0 in /  0.0 mm
14:57 59.4 °F /  15.2 °C 28.8 °F /  -1.8 °C 30.5 in /  1031.4 hPa East 8 mph /  12.9 km/h 11 mph /  17.7 km/h 31 % 0 in /  0.0 mm
15:02 59.4 °F /  15.2 °C 26.2 °F /  -3.2 °C 30.5 in /  1031.4 hPa SE 2 mph /  3.2 km/h 11 mph /  17.7 km/h 28 % 0 in /  0.0 mm
15:07 59.5 °F /  15.3 °C 28.9 °F /  -1.7 °C 30.5 in /  1031.4 hPa ENE 6 mph /  9.7 km/h 10 mph /  16.1 km/h 31 % 0 in /  0.0 mm
15:12 59.5 °F /  15.3 °C 27.3 °F /  -2.6 °C 30.5 in /  1031.4 hPa ENE 5 mph /  8.0 km/h 10 mph /  16.1 km/h 29 % 0 in /  0.0 mm
15:17 59.4 °F /  15.2 °C 29.5 °F /  -1.4 °C 30.4 in /  1031.0 hPa NNE 8 mph /  12.9 km/h 12 mph /  19.3 km/h 32 % 0 in /  0.0 mm
15:22 60.1 °F /  15.6 °C 28.6 °F /  -1.9 °C 30.4 in /  1031.0 hPa East 8 mph /  12.9 km/h 12 mph /  19.3 km/h 30 % 0 in /  0.0 mm
15:27 59.9 °F /  15.5 °C 27.5 °F /  -2.5 °C 30.4 in /  1031.0 hPa ENE 4 mph /  6.4 km/h 14 mph /  22.5 km/h 29 % 0 in /  0.0 mm
15:32 60.1 °F /  15.6 °C 28.6 °F /  -1.9 °C 30.4 in /  1031.0 hPa NNE 4 mph /  6.4 km/h 14 mph /  22.5 km/h 30 % 0 in /  0.0 mm
15:37 60.3 °F /  15.7 °C 30.2 °F /  -1.0 °C 30.4 in /  1031.0 hPa ENE 8 mph /  12.9 km/h 11 mph /  17.7 km/h 32 % 0 in /  0.0 mm
15:42 60.4 °F /  15.8 °C 30.4 °F /  -0.9 °C 30.4 in /  1031.0 hPa ENE 4 mph /  6.4 km/h 11 mph /  17.7 km/h 32 % 0 in /  0.0 mm
15:47 60.4 °F /  15.8 °C 28.9 °F /  -1.7 °C 30.4 in /  1030.7 hPa SE 1 mph /  1.6 km/h 12 mph /  19.3 km/h 30 % 0 in /  0.0 mm
15:52 60.6 °F /  15.9 °C 29.8 °F /  -1.2 °C 30.4 in /  1030.7 hPa East 2 mph /  3.2 km/h 12 mph /  19.3 km/h 31 % 0 in /  0.0 mm
15:57 60.6 °F /  15.9 °C 28.9 °F /  -1.7 °C 30.4 in /  1030.7 hPa East 4 mph /  6.4 km/h 12 mph /  19.3 km/h 30 % 0 in /  0.0 mm
16:02 60.6 °F /  15.9 °C 28.9 °F /  -1.7 °C 30.4 in /  1030.7 hPa NE 4 mph /  6.4 km/h 12 mph /  19.3 km/h 30 % 0 in /  0.0 mm
16:12 60.8 °F /  16.0 °C 29.1 °F /  -1.6 °C 30.4 in /  1030.4 hPa ENE 5 mph /  8.0 km/h 10 mph /  16.1 km/h 30 % 0 in /  0.0 mm
16:17 61.2 °F /  16.2 °C 29.5 °F /  -1.4 °C 30.4 in /  1030.4 hPa NNE 7 mph /  11.3 km/h 11 mph /  17.7 km/h 30 % 0 in /  0.0 mm
16:22 60.6 °F /  15.9 °C 27.3 °F /  -2.6 °C 30.4 in /  1030.4 hPa Calm   11 mph /  17.7 km/h 28 % 0 in /  0.0 mm
16:27 60.6 °F /  15.9 °C 29.8 °F /  -1.2 °C 30.4 in /  1030.4 hPa NNE 9 mph /  14.5 km/h 13 mph /  20.9 km/h 31 % 0 in /  0.0 mm
16:32 61 °F /  16.1 °C 30.2 °F /  -1.0 °C 30.4 in /  1030.4 hPa Calm   13 mph /  20.9 km/h 31 % 0 in /  0.0 mm
16:37 61.3 °F /  16.3 °C 28.8 °F /  -1.8 °C 30.4 in /  1030.4 hPa Calm   13 mph /  20.9 km/h 29 % 0 in /  0.0 mm
16:42 61.3 °F /  16.3 °C 28.8 °F /  -1.8 °C 30.4 in /  1030.0 hPa NNE 5 mph /  8.0 km/h 13 mph /  20.9 km/h 29 % 0 in /  0.0 mm
16:47 61 °F /  16.1 °C 29.3 °F /  -1.5 °C 30.4 in /  1030.0 hPa NE 5 mph /  8.0 km/h 13 mph /  20.9 km/h 30 % 0 in /  0.0 mm
16:52 61.5 °F /  16.4 °C 31.5 °F /  -0.3 °C 30.4 in /  1030.0 hPa NE 2 mph /  3.2 km/h 13 mph /  20.9 km/h 32 % 0 in /  0.0 mm
17:02 61.7 °F /  16.5 °C 29.1 °F /  -1.6 °C 30.4 in /  1030.0 hPa NNE 1 mph /  1.6 km/h 13 mph /  20.9 km/h 29 % 0 in /  0.0 mm
17:12 61.3 °F /  16.3 °C 28.8 °F /  -1.8 °C 30.4 in /  1030.0 hPa ENE 5 mph /  8.0 km/h 9 mph /  14.5 km/h 29 % 0 in /  0.0 mm
17:17 61.2 °F /  16.2 °C 29.5 °F /  -1.4 °C 30.4 in /  1030.0 hPa North 2 mph /  3.2 km/h 11 mph /  17.7 km/h 30 % 0 in /  0.0 mm
17:22 61.2 °F /  16.2 °C 29.5 °F /  -1.4 °C 30.4 in /  1030.0 hPa North 3 mph /  4.8 km/h 11 mph /  17.7 km/h 30 % 0 in /  0.0 mm
17:32 61.5 °F /  16.4 °C 29.8 °F /  -1.2 °C 30.4 in /  1029.7 hPa ENE 3 mph /  4.8 km/h 11 mph /  17.7 km/h 30 % 0 in /  0.0 mm
17:37 61.5 °F /  16.4 °C 29.8 °F /  -1.2 °C 30.4 in /  1029.7 hPa East 6 mph /  9.7 km/h 9 mph /  14.5 km/h 30 % 0 in /  0.0 mm
17:42 61.9 °F /  16.6 °C 30.9 °F /  -0.6 °C 30.4 in /  1029.7 hPa ENE 6 mph /  9.7 km/h 9 mph /  14.5 km/h 31 % 0 in /  0.0 mm
17:52 61.3 °F /  16.3 °C 29.7 °F /  -1.3 °C 30.4 in /  1029.7 hPa ENE 3 mph /  4.8 km/h 9 mph /  14.5 km/h 30 % 0 in /  0.0 mm
18:02 61.5 °F /  16.4 °C 29.8 °F /  -1.2 °C 30.4 in /  1029.7 hPa NE 5 mph /  8.0 km/h 11 mph /  17.7 km/h 30 % 0 in /  0.0 mm
18:07 61.9 °F /  16.6 °C 31.6 °F /  -0.2 °C 30.4 in /  1029.7 hPa ENE 2 mph /  3.2 km/h 11 mph /  17.7 km/h 32 % 0 in /  0.0 mm
18:12 61.5 °F /  16.4 °C 28.9 °F /  -1.7 °C 30.4 in /  1029.7 hPa Calm   11 mph /  17.7 km/h 29 % 0 in /  0.0 mm
18:17 61.5 °F /  16.4 °C 29.8 °F /  -1.2 °C 30.4 in /  1029.7 hPa NE 8 mph /  12.9 km/h 11 mph /  17.7 km/h 30 % 0 in /  0.0 mm
18:22 61.5 °F /  16.4 °C 29.8 °F /  -1.2 °C 30.4 in /  1029.7 hPa North 3 mph /  4.8 km/h 11 mph /  17.7 km/h 30 % 0 in /  0.0 mm
18:32 61.5 °F /  16.4 °C 29.8 °F /  -1.2 °C 30.4 in /  1029.3 hPa ENE 6 mph /  9.7 km/h 10 mph /  16.1 km/h 30 % 0 in /  0.0 mm
18:37 61.2 °F /  16.2 °C 30.2 °F /  -1.0 °C 30.4 in /  1029.3 hPa NE 5 mph /  8.0 km/h 10 mph /  16.1 km/h 31 % 0 in /  0.0 mm
18:42 61.2 °F /  16.2 °C 31.1 °F /  -0.5 °C 30.4 in /  1029.3 hPa NNW 2 mph /  3.2 km/h 10 mph /  16.1 km/h 32 % 0 in /  0.0 mm
18:52 61.5 °F /  16.4 °C 31.5 °F /  -0.3 °C 30.4 in /  1029.3 hPa NE 4 mph /  6.4 km/h 9 mph /  14.5 km/h 32 % 0 in /  0.0 mm
18:57 61.5 °F /  16.4 °C 30.6 °F /  -0.8 °C 30.4 in /  1029.3 hPa NE 3 mph /  4.8 km/h 7 mph /  11.3 km/h 31 % 0 in /  0.0 mm
19:02 61.2 °F /  16.2 °C 30.2 °F /  -1.0 °C 30.4 in /  1029.3 hPa NNE 2 mph /  3.2 km/h 7 mph /  11.3 km/h 31 % 0 in /  0.0 mm
19:07 61.2 °F /  16.2 °C 30.2 °F /  -1.0 °C 30.4 in /  1029.3 hPa NE 6 mph /  9.7 km/h 8 mph /  12.9 km/h 31 % 0 in /  0.0 mm
19:12 61.2 °F /  16.2 °C 29.5 °F /  -1.4 °C 30.4 in /  1029.3 hPa NE 2 mph /  3.2 km/h 8 mph /  12.9 km/h 30 % 0 in /  0.0 mm
19:17 61 °F /  16.1 °C 29.3 °F /  -1.5 °C 30.4 in /  1029.3 hPa NNE 3 mph /  4.8 km/h 8 mph /  12.9 km/h 30 % 0 in /  0.0 mm
19:22 61 °F /  16.1 °C 29.3 °F /  -1.5 °C 30.4 in /  1029.3 hPa NNE 4 mph /  6.4 km/h 8 mph /  12.9 km/h 30 % 0 in /  0.0 mm
19:27 60.6 °F /  15.9 °C 29.8 °F /  -1.2 °C 30.4 in /  1029.3 hPa NE 6 mph /  9.7 km/h 7 mph /  11.3 km/h 31 % 0 in /  0.0 mm
19:32 60.4 °F /  15.8 °C 29.7 °F /  -1.3 °C 30.4 in /  1029.3 hPa NE 4 mph /  6.4 km/h 7 mph /  11.3 km/h 31 % 0 in /  0.0 mm
19:42 60.4 °F /  15.8 °C 30.4 °F /  -0.9 °C 30.4 in /  1029.3 hPa NE 1 mph /  1.6 km/h 8 mph /  12.9 km/h 32 % 0 in /  0.0 mm
19:52 60.3 °F /  15.7 °C 30.2 °F /  -1.0 °C 30.4 in /  1029.3 hPa NE 3 mph /  4.8 km/h 6 mph /  9.7 km/h 32 % 0 in /  0.0 mm
19:57 59.9 °F /  15.5 °C 30.7 °F /  -0.7 °C 30.4 in /  1029.0 hPa NNE 2 mph /  3.2 km/h 6 mph /  9.7 km/h 33 % 0 in /  0.0 mm
20:02 59.7 °F /  15.4 °C 29.8 °F /  -1.2 °C 30.4 in /  1029.3 hPa NE 2 mph /  3.2 km/h 6 mph /  9.7 km/h 32 % 0 in /  0.0 mm
20:07 59.5 °F /  15.3 °C 30.4 °F /  -0.9 °C 30.4 in /  1029.0 hPa NNE 3 mph /  4.8 km/h 6 mph /  9.7 km/h 33 % 0 in /  0.0 mm
20:12 59.5 °F /  15.3 °C 30.4 °F /  -0.9 °C 30.4 in /  1029.0 hPa NE 2 mph /  3.2 km/h 6 mph /  9.7 km/h 33 % 0 in /  0.0 mm
20:17 59.4 °F /  15.2 °C 30.2 °F /  -1.0 °C 30.4 in /  1029.0 hPa NNE 3 mph /  4.8 km/h 4 mph /  6.4 km/h 33 % 0 in /  0.0 mm
20:22 59.2 °F /  15.1 °C 30.7 °F /  -0.7 °C 30.4 in /  1029.0 hPa NE 3 mph /  4.8 km/h 4 mph /  6.4 km/h 34 % 0 in /  0.0 mm
20:32 57.9 °F /  14.4 °C 31.1 °F /  -0.5 °C 30.4 in /  1029.0 hPa NE 1 mph /  1.6 km/h 4 mph /  6.4 km/h 36 % 0 in /  0.0 mm
20:37 57.4 °F /  14.1 °C 30.6 °F /  -0.8 °C 30.4 in /  1029.0 hPa NNE 3 mph /  4.8 km/h 4 mph /  6.4 km/h 36 % 0 in /  0.0 mm
20:42 57 °F /  13.9 °C 29.7 °F /  -1.3 °C 30.4 in /  1029.0 hPa NE 3 mph /  4.8 km/h 4 mph /  6.4 km/h 35 % 0 in /  0.0 mm
20:52 56.1 °F /  13.4 °C 30.2 °F /  -1.0 °C 30.4 in /  1029.0 hPa NNE 3 mph /  4.8 km/h 4 mph /  6.4 km/h 37 % 0 in /  0.0 mm
20:57 55.6 °F /  13.1 °C 31.1 °F /  -0.5 °C 30.4 in /  1029.0 hPa Calm   4 mph /  6.4 km/h 39 % 0 in /  0.0 mm
21:02 55 °F /  12.8 °C 31.1 °F /  -0.5 °C 30.4 in /  1029.0 hPa Calm   4 mph /  6.4 km/h 40 % 0 in /  0.0 mm
21:07 54.7 °F /  12.6 °C 30.9 °F /  -0.6 °C 30.4 in /  1029.0 hPa Calm   4 mph /  6.4 km/h 40 % 0 in /  0.0 mm
21:17 54 °F /  12.2 °C 30.7 °F /  -0.7 °C 30.4 in /  1029.0 hPa NNW 1 mph /  1.6 km/h 2 mph /  3.2 km/h 41 % 0 in /  0.0 mm
21:22 53.4 °F /  11.9 °C 30.9 °F /  -0.6 °C 30.4 in /  1029.3 hPa NNW 1 mph /  1.6 km/h 2 mph /  3.2 km/h 42 % 0 in /  0.0 mm
21:27 52.9 °F /  11.6 °C 30.4 °F /  -0.9 °C 30.4 in /  1029.0 hPa NNW 1 mph /  1.6 km/h 4 mph /  6.4 km/h 42 % 0 in /  0.0 mm
21:32 52.7 °F /  11.5 °C 30.7 °F /  -0.7 °C 30.4 in /  1029.0 hPa Calm   4 mph /  6.4 km/h 43 % 0 in /  0.0 mm
21:37 52.3 °F /  11.3 °C 31.1 °F /  -0.5 °C 30.4 in /  1029.0 hPa NNW 1 mph /  1.6 km/h 4 mph /  6.4 km/h 44 % 0 in /  0.0 mm
21:42 52.2 °F /  11.2 °C 30.9 °F /  -0.6 °C 30.4 in /  1029.3 hPa NNW 1 mph /  1.6 km/h 4 mph /  6.4 km/h 44 % 0 in /  0.0 mm
21:52 51.6 °F /  10.9 °C 30.4 °F /  -0.9 °C 30.4 in /  1029.3 hPa NNW 1 mph /  1.6 km/h 3 mph /  4.8 km/h 44 % 0 in /  0.0 mm
21:57 51.4 °F /  10.8 °C 30.7 °F /  -0.7 °C 30.4 in /  1029.3 hPa Calm   2 mph /  3.2 km/h 45 % 0 in /  0.0 mm
22:02 51.3 °F /  10.7 °C 30.6 °F /  -0.8 °C 30.4 in /  1029.3 hPa NNW 1 mph /  1.6 km/h 2 mph /  3.2 km/h 45 % 0 in /  0.0 mm
22:07 51.1 °F /  10.6 °C 31.1 °F /  -0.5 °C 30.4 in /  1029.3 hPa NNW 1 mph /  1.6 km/h 2 mph /  3.2 km/h 46 % 0 in /  0.0 mm
22:12 51.1 °F /  10.6 °C 31.1 °F /  -0.5 °C 30.4 in /  1029.3 hPa NNW 2 mph /  3.2 km/h 2 mph /  3.2 km/h 46 % 0 in /  0.0 mm
22:17 51.1 °F /  10.6 °C 31.6 °F /  -0.2 °C 30.4 in /  1029.3 hPa North 2 mph /  3.2 km/h 2 mph /  3.2 km/h 47 % 0 in /  0.0 mm
22:22 50.5 °F /  10.3 °C 31.6 °F /  -0.2 °C 30.4 in /  1029.3 hPa NNW 1 mph /  1.6 km/h 2 mph /  3.2 km/h 48 % 0 in /  0.0 mm
22:32 50.2 °F /  10.1 °C 31.8 °F /  -0.1 °C 30.4 in /  1029.3 hPa NNW 1 mph /  1.6 km/h 4 mph /  6.4 km/h 49 % 0 in /  0.0 mm
22:37 50.4 °F /  10.2 °C 32 °F /  0.0 °C 30.4 in /  1029.3 hPa NNW 2 mph /  3.2 km/h 3 mph /  4.8 km/h 49 % 0 in /  0.0 mm
22:42 50.4 °F /  10.2 °C 32 °F /  0.0 °C 30.4 in /  1029.3 hPa NNW 2 mph /  3.2 km/h 3 mph /  4.8 km/h 49 % 0 in /  0.0 mm
22:47 50 °F /  10.0 °C 32.2 °F /  0.1 °C 30.4 in /  1029.3 hPa NNW 1 mph /  1.6 km/h 3 mph /  4.8 km/h 50 % 0 in /  0.0 mm
22:52 49.8 °F /  9.9 °C 32 °F /  0.0 °C 30.4 in /  1029.3 hPa NNW 1 mph /  1.6 km/h 3 mph /  4.8 km/h 50 % 0 in /  0.0 mm
22:57 49.6 °F /  9.8 °C 31.8 °F /  -0.1 °C 30.4 in /  1029.3 hPa NNW 1 mph /  1.6 km/h 3 mph /  4.8 km/h 50 % 0 in /  0.0 mm
23:02 49.6 °F /  9.8 °C 32.2 °F /  0.1 °C 30.4 in /  1029.3 hPa Calm   3 mph /  4.8 km/h 51 % 0 in /  0.0 mm
23:12 49.3 °F /  9.6 °C 32.4 °F /  0.2 °C 30.4 in /  1029.3 hPa NW 2 mph /  3.2 km/h 3 mph /  4.8 km/h 52 % 0 in /  0.0 mm
23:17 49.3 °F /  9.6 °C 32.4 °F /  0.2 °C 30.4 in /  1029.3 hPa NNE 2 mph /  3.2 km/h 3 mph /  4.8 km/h 52 % 0 in /  0.0 mm
23:22 49.3 °F /  9.6 °C 32.4 °F /  0.2 °C 30.4 in /  1029.0 hPa North 1 mph /  1.6 km/h 3 mph /  4.8 km/h 52 % 0 in /  0.0 mm
23:27 49.5 °F /  9.7 °C 32 °F /  0.0 °C 30.4 in /  1029.3 hPa North 3 mph /  4.8 km/h 4 mph /  6.4 km/h 51 % 0 in /  0.0 mm
23:32 49.5 °F /  9.7 °C 32 °F /  0.0 °C 30.4 in /  1029.0 hPa North 2 mph /  3.2 km/h 4 mph /  6.4 km/h 51 % 0 in /  0.0 mm
23:42 49.1 °F /  9.5 °C 32.2 °F /  0.1 °C 30.4 in /  1029.3 hPa NE 3 mph /  4.8 km/h 4 mph /  6.4 km/h 52 % 0 in /  0.0 mm
23:47 48.9 °F /  9.4 °C 32 °F /  0.0 °C 30.4 in /  1029.3 hPa NE 4 mph /  6.4 km/h 5 mph /  8.0 km/h 52 % 0 in /  0.0 mm
23:52 48.7 °F /  9.3 °C 31.8 °F /  -0.1 °C 30.4 in /  1029.3 hPa NNW 3 mph /  4.8 km/h 5 mph /  8.0 km/h 52 % 0 in /  0.0 mm
23:57 48.7 °F /  9.3 °C 31.8 °F /  -0.1 °C 30.4 in /  1029.3 hPa NE 4 mph /  6.4 km/h 5 mph /  8.0 km/h 52 % 0 in /  0.0 mm
Meteo18
Compliments of Weather Underground - 4 mb

Script developed by  Jim McMurry - jmcmurry@mwt.net Adapted for the template by  Wim van der Kuil - Leuven-Template.eu

You find our weather info also at:

European Weather Network

Weather Underground

Equipment we use:

Weather-station
Davis Vue

Weather-program
Meteohub

Weather-server
Raspberry PI 2 B+

Provider
1 and 1

Davis Vue

Meteohub

Raspberry PI 2 B+

1 and 1